Bookmark and Share
Track history (hours):
 

MSC Vigo

Last reported at 2014-Apr-20 02:31 UTC. Time now 2014-Apr-20 03:23 UTC.
Position N 43°34' E 010°18'.

Length 270 m; draft 10.9 m.

Type: Ship (hazmat cat A). MMSI: 636092276.

NotesDate/timePositionNaut miles runAvg speedWind from/ knotsBaromVisibWave heightAir tempDewpointWater temp
2014-Apr-20 02:31N 43°34' E 010°18'0 0.0
2014-Apr-20 01:31N 43°34' E 010°18'0 0.0
2014-Apr-20 00:31N 43°34' E 010°18'0 0.0
2014-Apr-19 23:31N 43°34' E 010°18'0 0.0
2014-Apr-19 22:31N 43°34' E 010°18'0 0.0
2014-Apr-19 21:31N 43°34' E 010°18'0 0.0
2014-Apr-19 20:31N 43°34' E 010°18'0 0.0
2014-Apr-19 19:31N 43°34' E 010°18'0 0.0
2014-Apr-19 18:31N 43°34' E 010°18'0 0.0
2014-Apr-19 17:31N 43°34' E 010°18'0 0.0
2014-Apr-19 16:31N 43°34' E 010°18'0 0.0
2014-Apr-19 15:31N 43°34' E 010°18'0 0.0
2014-Apr-19 14:28N 43°34' E 010°18'0 0.0
2014-Apr-19 13:31N 43°34' E 010°18'0 0.0
2014-Apr-19 12:31N 43°34' E 010°18'0 0.0
2014-Apr-19 11:31N 43°34' E 010°18'0 0.0
2014-Apr-19 10:31N 43°34' E 010°18'0 0.0
2014-Apr-19 09:31N 43°34' E 010°18'0 0.0
2014-Apr-19 08:31N 43°34' E 010°18'0 0.0
2014-Apr-19 07:31N 43°34' E 010°18'0 0.0
2014-Apr-19 06:31N 43°34' E 010°18'1 1.0
2014-Apr-19 05:33N 43°34' E 010°18'5 5.3
2014-Apr-19 04:33N 43°29' E 010°14'1 0.7
2014-Apr-19 03:33N 43°29' E 010°15'2 2.4
2014-Apr-19 02:33N 43°28' E 010°12'6 6.5
2014-Apr-19 01:33N 43°21' E 010°10'1111.4
2014-Apr-19 00:33N 43°11' E 010°05'1414.0
2014-Apr-18 23:34N 42°57' E 009°59'6712.1
2014-Apr-18 18:00N 41°54' E 010°30'15913.3 230 / 81007.010.8 0.516.010.3
2014-Apr-18 06:00N 40°12' E 013°12'108 2.3 250 / 31010.027.0 15.0
2014-Apr-16 06:00N 38°24' E 013°18'8013.3 360 / 81013.527.0 0.513.0
2014-Apr-16 00:00N 38°24' E 011°36'7413.5 010 / 231012.5 5.4 1.015.013.220.0
2014-Apr-15 18:33N 38°34' E 010°03'814.7
2014-Apr-15 18:00N 38°30' E 009°54'920.6 280 / 191011.0 5.4 0.519.0
2014-Apr-15 17:34N 38°35' E 009°45'1414.1
2014-Apr-15 16:33N 38°36' E 009°27'1413.9
2014-Apr-15 15:33N 38°37' E 009°09'4210.6
2014-Apr-15 11:34N 38°40' E 008°15'11019.8
2014-Apr-15 06:00N 38°48' E 005°54'8414.1 260 / 41015.0 5.4 16.0
2014-Apr-15 00:00N 38°54' E 004°06'3 2.2 040 / 41017.0 5.4 0.518.014.619.0
2014-Apr-14 22:33N 38°54' E 004°02'1413.7
2014-Apr-14 21:32N 38°55' E 003°44'1313.5
2014-Apr-14 20:33N 38°56' E 003°27'1413.6
2014-Apr-14 19:34N 38°57' E 003°10'1413.6
2014-Apr-14 18:34N 38°58' E 002°52'1414.1
2014-Apr-14 17:33N 39°02' E 002°35'1414.4
2014-Apr-14 16:34N 39°06' E 002°17'1414.2
2014-Apr-14 15:34N 39°09' E 001°59'1413.6
2014-Apr-14 14:33N 39°15' E 001°43'1413.9
2014-Apr-14 13:33N 39°18' E 001°26'3824.6
2014-Apr-14 12:00N 39°18' E 000°36'76 2.0 120 / 51018.010.8 0.519.015.620.0
2014-Apr-12 21:23N 38°08' W 000°01'1010.8
2014-Apr-12 20:28N 38°00' W 000°08'1111.0
2014-Apr-12 19:28N 37°51' W 000°16'1211.6
2014-Apr-12 18:27N 37°41' W 000°24'510.9
2014-Apr-12 18:00N 37°36' W 000°24'715.9 050 / 171014.010.8 0.520.0
2014-Apr-12 17:33N 37°32' W 000°32'13611.7
2014-Apr-12 06:00N 36°12' W 002°48'12012.7 230 / 71012.0 5.4 0.515.0
2014-Apr-11 20:34N 35°60' W 005°16'13 2.0
2014-Apr-11 14:13N 35°54' W 005°30'4 2.2
2014-Apr-11 12:31N 35°53' W 005°34'3 2.2
2014-Apr-11 11:24N 35°54' W 005°37'3 3.3
2014-Apr-11 10:27N 35°54' W 005°41'2 2.4
2014-Apr-11 09:31N 35°54' W 005°44'3 3.6
2014-Apr-11 08:33N 35°53' W 005°48'8 7.5
2014-Apr-11 07:27N 35°53' W 005°58'1112.2
2014-Apr-11 06:33N 35°52' W 006°12'1120.3
2014-Apr-11 06:00N 35°42' W 006°18'6614.5 030 / 61013.0 5.4 17.5
2014-Apr-11 01:28N 34°59' W 007°19'1515.0
2014-Apr-11 00:28N 34°49' W 007°32'715.6
2014-Apr-11 00:00N 34°42' W 007°36'1116.5 320 / 121017.0 2.2 1.018.112.8
2014-Apr-10 23:21N 34°36' W 007°47'1615.6
2014-Apr-10 22:19N 34°25' W 008°01'1215.5
2014-Apr-10 21:33N 34°17' W 008°11'1515.5
2014-Apr-10 20:33N 34°06' W 008°24'1615.3
2014-Apr-10 19:29N 33°54' W 008°38'1415.0
2014-Apr-10 18:33N 33°45' W 008°50'916.3
2014-Apr-10 18:00N 33°36' W 008°54'818.0 050 / 101014.0 5.4 1.024.0
2014-Apr-10 17:33N 33°34' W 009°03'1714.9
2014-Apr-10 16:25N 33°22' W 009°17'1315.0
2014-Apr-10 15:33N 33°13' W 009°29'1514.9
2014-Apr-10 14:33N 33°03' W 009°41'1515.4
2014-Apr-10 13:33N 32°52' W 009°54'12316.3
2014-Apr-10 06:00N 31°24' W 011°36'   360 / 181013.0 17.0

Dump ship's entire track history

sailing weather and tide predictions

MSC Vigo — A8ZV8 — position and weather